info@concordregional.com
(704) 793-1234
contact us

We're located at
Concord Regional Airport
Concord, North Carolina
Hangar D, same office locations as Charlotte Jet

Flight Planning and Weather Links

Regional METARS  |  NOAA Aviation WX  |  JQF Terminal Charts  |  FltPlan.COM  |  DTC Duats  |  CSC Duats

KJQF 241755Z 09005KT 10SM CLR 20/01 A3010
KCLT 241752Z VRB04KT 10SM FEW250 21/03 A3007 RMK AO2 SLP177 T02060033 10206 20117 58026
KGSO 241754Z 00000KT 10SM BKN250 18/M01 A3006 RMK AO2 SLP174 T01831006 10189 20100 58029
KRDU 241751Z 25006KT 10SM BKN250 19/00 A3008 RMK AO2 SLP185 T01890000 10189 20089 58029
KAVL 241754Z 14007KT 100V160 10SM CLR 19/01 A3004 RMK AO2 SLP159 T01940011 10200 20050 58033
KGSP 241753Z 00000KT 10SM CLR 21/03 A3004 RMK AO2 SLP165 T02060028 10206 20106 58028
KCAE 241756Z 09005KT 10SM CLR 23/05 A3004 RMK AO2 SLP170 T02330050 10239 20144 58022
KCHS 241756Z 11012G19KT 10SM FEW035 25/10 A3005 RMK AO2 SLP175 T02500100 10256 20150 58009

Radar Info

Concord Terminal Charts and local weather

Top